Toston, MT (59643)

1:51 AM MST on December 06, 2016 (GMT -0700)
Townsend, Montana | | Change Station

Elev 3944 ft 46.26 °N, 111.45 °W | Updated 6 minutes ago

Overcast
Overcast
12.1 °F
Feels Like 5 °F
N
4.0
Wind Variable Wind from North
Gusts 9.0 mph

Today
High -- | Low -- °F
--% Chance of Precip.
Yesterday
High -- | Low -- °F
Precip. -- in
Pressure 29.96 in
Visibility 10.0 miles
Clouds Mostly Cloudy 500 ft
Overcast 7000 ft
Windchill 5 °F
Dew Point 8 °F
Humidity 82%
Rainfall 0.00 in
Snow Depth Not available.
7:54 AM 4:40 PM
Waxing Crescent, 39% visible
SPECI KBZN 060835Z AUTO 31005KT 10SM BKN005 OVC070 M12/M13 A2996 RMK AO2 T11171133
Pressure 29.96 in
Visibility 10.0 miles
Clouds Mostly Cloudy 500 ft
Overcast 7000 ft
Windchill 5 °F
Dew Point 8 °F
Humidity 82%
Rainfall 0.00 in
Snow Depth Not available.
7:54 AM 4:40 PM
Waxing Crescent, 39% visible
SPECI KBZN 060835Z AUTO 31005KT 10SM BKN005 OVC070 M12/M13 A2996 RMK AO2 T11171133

10-Day Weather Forecast

Almanac

Astronomy

Dec. 06, 2016 Rise Set
Actual Time
Civil Twilight
Nautical Twilight
Astronomical Twilight
Moon
Length of Visible Light
Length of Day
Tomorrow will be .
, % of the Moon is Illuminated

Today's Extremes

State Highs State Lows

Community

WunderPhotos

Upload Photos

1,955,930 photos uploaded!

WunderBlog® & News

Nearby

Air Quality

  Air Quality AQ Index Pollutant
Not available.

Snow Depth

Station Depth Elevation

Earthquake Activity

City Distance Mag. Time & Date
Minimum magnitude displayed is 2.5.

Coastal Water Temperatures

Place Temperature

Stations

Nearby Weather Stations

Station Location Temp. Windchill Dew Point Humidity Wind Precip. Elev Updated Type
                   

Watches & Warnings

There are currently no watches in effect.